Time;durP1;ratioP1;P1;durP2;ratioP2;P2;SDS_P1;SDS_P2;PMS_P1;PMS_P2;Temp;Humidity;BMP_temperature;BMP_pressure;BME280_temperature;BME280_humidity;BME280_pressure;Samples;Min_cycle;Max_cycle;Signal;HPM_P1;HPM_P2
2023/07/11 00:01:36;;;;;;;939.22;781.05;;;;;;;;;;5063686;28;20262;-54
2023/07/11 00:04:02;;;;;;;938.15;782.42;;;;;;;;;;5064036;28;20036;-53
2023/07/11 00:06:28;;;;;;;943.67;788.65;;;;;;;;;;5063459;28;20082;-54
2023/07/11 00:08:54;;;;;;;942.75;785.83;;;;;;;;;;5065006;28;20024;-51
2023/07/11 00:11:19;;;;;;;938.85;773.22;;;;;;;;;;5064372;28;20078;-52
2023/07/11 00:13:44;;;;;;;943.13;780.90;;;;;;;;;;5063695;28;20093;-54
2023/07/11 00:16:11;;;;;;;941.58;782.50;;;;;;;;;;5062825;28;20416;-53
2023/07/11 00:18:36;;;;;;;936.65;772.85;;;;;;;;;;5064235;28;20036;-50
2023/07/11 00:21:04;;;;;;;938.47;775.00;;;;;;;;;;5063716;28;20082;-49
2023/07/11 00:23:29;;;;;;;935.08;764.50;;;;;;;;;;5064386;28;20044;-49
2023/07/11 00:25:55;;;;;;;937.65;770.28;;;;;;;;;;5063745;28;20535;-54
2023/07/11 00:28:20;;;;;;;938.15;770.60;;;;;;;;;;5063079;28;20020;-50
2023/07/11 00:30:46;;;;;;;936.65;773.50;;;;;;;;;;5060112;28;20021;-49
2023/07/11 00:33:12;;;;;;;929.63;756.47;;;;;;;;;;5044206;28;20017;-52
2023/07/11 00:35:37;;;;;;;933.90;760.10;;;;;;;;;;5045100;28;20430;-51
2023/07/11 00:38:03;;;;;;;934.20;755.38;;;;;;;;;;5064022;28;20428;-52
2023/07/11 00:40:28;;;;;;;934.83;762.03;;;;;;;;;;5063397;28;20040;-49
2023/07/11 00:42:54;;;;;;;935.78;765.00;;;;;;;;;;5063474;28;20031;-50
2023/07/11 00:45:38;;;;;;;930.10;763.28;;;;;;;;;;5063288;28;20025;-53
2023/07/11 00:48:03;;;;;;;923.45;745.60;;;;;;;;;;5064128;28;20031;-53
2023/07/11 00:50:29;;;;;;;935.22;759.03;;;;;;;;;;5062923;28;20024;-53
2023/07/11 00:52:55;;;;;;;930.08;756.75;;;;;;;;;;5061161;28;20048;-51
2023/07/11 00:55:21;;;;;;;930.95;751.20;;;;;;;;;;5063473;28;20081;-53
2023/07/11 00:57:46;;;;;;;927.75;754.95;;;;;;;;;;5063283;28;20036;-52
2023/07/11 01:00:12;;;;;;;931.25;755.78;;;;;;;;;;5063702;28;20107;-50
2023/07/11 01:02:37;;;;;;;922.45;746.97;;;;;;;;;;5045058;28;20152;-48
2023/07/11 01:05:03;;;;;;;928.20;758.90;;;;;;;;;;5063629;28;20468;-53
2023/07/11 01:07:34;;;;;;;930.17;753.67;;;;;;;;;;5063022;28;20051;-53
2023/07/11 01:09:59;;;;;;;928.15;744.05;;;;;;;;;;5063978;28;20020;-51
2023/07/11 01:12:24;;;;;;;933.03;753.63;;;;;;;;;;5062995;28;20029;-53
2023/07/11 01:14:50;;;;;;;926.60;748.55;;;;;;;;;;5062522;28;20233;-51
2023/07/11 01:17:22;;;;;;;930.03;751.50;;;;;;;;;;5062279;28;20491;-51
2023/07/11 01:19:47;;;;;;;925.83;742.70;;;;;;;;;;5062769;28;20033;-52
2023/07/11 01:22:12;;;;;;;927.35;747.38;;;;;;;;;;5062790;28;20404;-52
2023/07/11 01:24:37;;;;;;;925.22;748.15;;;;;;;;;;5063887;28;20029;-52
2023/07/11 01:27:03;;;;;;;927.05;748.20;;;;;;;;;;5062498;28;20036;-50
2023/07/11 01:29:29;;;;;;;934.33;757.67;;;;;;;;;;5063154;28;20047;-52
2023/07/11 01:31:54;;;;;;;926.95;744.53;;;;;;;;;;5062535;28;20472;-53
2023/07/11 01:34:19;;;;;;;930.17;757.10;;;;;;;;;;5062886;28;20427;-54
2023/07/11 01:36:44;;;;;;;932.90;744.47;;;;;;;;;;5062240;28;20025;-50
2023/07/11 01:39:10;;;;;;;923.78;743.13;;;;;;;;;;5063692;28;20048;-52
2023/07/11 01:41:35;;;;;;;922.30;735.33;;;;;;;;;;5062633;28;20025;-54
2023/07/11 01:44:01;;;;;;;926.25;737.40;;;;;;;;;;5063512;28;20472;-53
2023/07/11 01:46:26;;;;;;;922.85;736.95;;;;;;;;;;5062695;28;20405;-51
2023/07/11 01:48:51;;;;;;;927.67;748.95;;;;;;;;;;5062187;28;20044;-53
2023/07/11 01:51:17;;;;;;;925.38;742.38;;;;;;;;;;5061864;28;20413;-50
2023/07/11 01:53:42;;;;;;;925.58;738.42;;;;;;;;;;5063035;28;20114;-53
2023/07/11 01:56:09;;;;;;;926.22;735.65;;;;;;;;;;5062541;28;20060;-49
2023/07/11 01:58:34;;;;;;;922.67;733.00;;;;;;;;;;5062399;28;20032;-51
2023/07/11 02:00:59;;;;;;;925.28;737.33;;;;;;;;;;5062071;28;20358;-53
2023/07/11 02:03:25;;;;;;;928.75;741.75;;;;;;;;;;5063062;28;20074;-49
2023/07/11 02:05:51;;;;;;;925.30;731.38;;;;;;;;;;5062531;28;20060;-52
2023/07/11 02:08:16;;;;;;;926.95;735.72;;;;;;;;;;5063296;28;20024;-55
2023/07/11 02:10:41;;;;;;;925.53;726.28;;;;;;;;;;5062678;28;20905;-51
2023/07/11 02:13:07;;;;;;;929.40;734.42;;;;;;;;;;5063338;28;20099;-50
2023/07/11 02:15:32;;;;;;;927.42;727.92;;;;;;;;;;5062228;28;20414;-49
2023/07/11 02:17:57;;;;;;;929.50;727.95;;;;;;;;;;5062714;28;20033;-51
2023/07/11 02:20:23;;;;;;;930.13;730.15;;;;;;;;;;5062949;28;20495;-51
2023/07/11 02:22:48;;;;;;;924.28;717.80;;;;;;;;;;5062188;28;20031;-54
2023/07/11 02:25:13;;;;;;;921.55;722.50;;;;;;;;;;5063507;28;20024;-50
2023/07/11 02:27:39;;;;;;;923.30;715.42;;;;;;;;;;5064080;28;20190;-53
2023/07/11 02:30:04;;;;;;;918.72;701.40;;;;;;;;;;5065069;28;20016;-47
2023/07/11 02:32:30;;;;;;;921.25;713.10;;;;;;;;;;5029500;28;20446;-50
2023/07/11 02:34:55;;;;;;;918.22;703.38;;;;;;;;;;5066345;28;20054;-46
2023/07/11 02:37:20;;;;;;;925.33;714.73;;;;;;;;;;5065412;28;20037;-48
2023/07/11 02:39:46;;;;;;;920.92;716.40;;;;;;;;;;5064478;28;20318;-50
2023/07/11 02:42:11;;;;;;;915.53;697.28;;;;;;;;;;5066082;28;20327;-50
2023/07/11 02:44:36;;;;;;;919.53;710.78;;;;;;;;;;5066239;28;20028;-52
2023/07/11 02:47:02;;;;;;;922.80;710.25;;;;;;;;;;5045914;28;20511;-52
2023/07/11 02:49:27;;;;;;;915.20;695.75;;;;;;;;;;5066625;28;20029;-53
2023/07/11 02:51:52;;;;;;;908.88;678.63;;;;;;;;;;5064734;28;20531;-48
2023/07/11 02:54:17;;;;;;;907.20;688.58;;;;;;;;;;5064572;28;20044;-50
2023/07/11 02:56:43;;;;;;;907.35;680.00;;;;;;;;;;5065964;28;20021;-50
2023/07/11 02:59:08;;;;;;;902.15;674.38;;;;;;;;;;5065096;28;20048;-49
2023/07/11 03:01:34;;;;;;;915.50;688.67;;;;;;;;;;5064986;28;20112;-51
2023/07/11 03:03:59;;;;;;;897.53;669.40;;;;;;;;;;5066028;28;20603;-49
2023/07/11 03:06:25;;;;;;;900.72;669.78;;;;;;;;;;5065034;28;20162;-52
2023/07/11 03:08:50;;;;;;;906.13;682.42;;;;;;;;;;5063686;28;20042;-49
2023/07/11 03:11:15;;;;;;;914.60;690.83;;;;;;;;;;5064072;28;20017;-49
2023/07/11 03:13:41;;;;;;;903.50;663.40;;;;;;;;;;5066244;28;20118;-51
2023/07/11 03:16:06;;;;;;;901.20;663.22;;;;;;;;;;5064758;28;20483;-50
2023/07/11 03:18:32;;;;;;;914.28;689.03;;;;;;;;;;5065539;28;20420;-51
2023/07/11 03:20:58;;;;;;;910.20;682.55;;;;;;;;;;5063664;28;20385;-51
2023/07/11 03:23:24;;;;;;;912.15;682.38;;;;;;;;;;5064962;28;20499;-51
2023/07/11 03:25:49;;;;;;;910.45;682.50;;;;;;;;;;5064723;28;20036;-49
2023/07/11 03:28:15;;;;;;;904.38;660.22;;;;;;;;;;5065824;28;20020;-53
2023/07/11 03:30:40;;;;;;;905.55;672.13;;;;;;;;;;5063383;28;20028;-51
2023/07/11 03:33:05;;;;;;;898.28;657.72;;;;;;;;;;5065499;28;20025;-51
2023/07/11 03:35:31;;;;;;;905.67;682.10;;;;;;;;;;5027956;28;20111;-48
2023/07/11 03:37:57;;;;;;;919.95;691.10;;;;;;;;;;5028343;28;20051;-49
2023/07/11 03:40:24;;;;;;;912.15;691.28;;;;;;;;;;5065458;28;20020;-51
2023/07/11 03:42:49;;;;;;;891.60;647.72;;;;;;;;;;5063683;28;20276;-50
2023/07/11 03:45:14;;;;;;;911.13;671.45;;;;;;;;;;5064937;28;20262;-50
2023/07/11 03:47:40;;;;;;;901.67;671.22;;;;;;;;;;5064145;28;20055;-48
2023/07/11 03:50:05;;;;;;;914.67;684.85;;;;;;;;;;5065240;28;20074;-51
2023/07/11 03:52:30;;;;;;;910.67;686.95;;;;;;;;;;5064366;28;20048;-48
2023/07/11 03:54:55;;;;;;;915.42;691.17;;;;;;;;;;5065272;28;20147;-54
2023/07/11 03:57:21;;;;;;;915.97;687.38;;;;;;;;;;5028944;28;20051;-52
2023/07/11 03:59:46;;;;;;;912.65;685.88;;;;;;;;;;5064759;28;20020;-52
2023/07/11 04:02:11;;;;;;;917.20;692.67;;;;;;;;;;5064827;28;20009;-52
2023/07/11 04:04:37;;;;;;;915.28;695.78;;;;;;;;;;5064513;28;20027;-50
2023/07/11 04:07:03;;;;;;;919.33;704.50;;;;;;;;;;5064780;28;20028;-50
2023/07/11 04:09:28;;;;;;;918.03;699.05;;;;;;;;;;5064355;28;20056;-50
2023/07/11 04:11:53;;;;;;;921.20;701.13;;;;;;;;;;5064500;28;20021;-48
2023/07/11 04:14:18;;;;;;;919.72;700.85;;;;;;;;;;5064646;28;20078;-53
2023/07/11 04:16:44;;;;;;;928.00;719.75;;;;;;;;;;5028531;28;20486;-52
2023/07/11 04:19:09;;;;;;;931.78;723.00;;;;;;;;;;5064482;28;20020;-51
2023/07/11 04:21:35;;;;;;;932.05;728.40;;;;;;;;;;5076593;28;20494;-50
2023/07/11 04:24:00;;;;;;;937.42;739.22;;;;;;;;;;5084557;28;20016;-50
2023/07/11 04:26:25;;;;;;;932.67;737.63;;;;;;;;;;5083940;28;20455;-48
2023/07/11 04:28:50;;;;;;;933.45;737.35;;;;;;;;;;5072262;28;20024;-50
2023/07/11 04:31:16;;;;;;;940.75;749.55;;;;;;;;;;5064143;28;20263;-48
2023/07/11 04:33:41;;;;;;;943.33;760.58;;;;;;;;;;5064024;28;20025;-49
2023/07/11 04:36:07;;;;;;;937.28;755.88;;;;;;;;;;5063981;28;20138;-50
2023/07/11 04:38:33;;;;;;;941.13;759.97;;;;;;;;;;5063675;28;20151;-50
2023/07/11 04:41:00;;;;;;;933.83;756.88;;;;;;;;;;5063693;28;20529;-48
2023/07/11 04:43:26;;;;;;;944.65;764.30;;;;;;;;;;5064033;28;20225;-48
2023/07/11 04:45:51;;;;;;;949.00;779.10;;;;;;;;;;5063340;28;20539;-52
2023/07/11 04:48:16;;;;;;;950.23;781.60;;;;;;;;;;5044853;28;20043;-50
2023/07/11 04:50:41;;;;;;;957.58;784.65;;;;;;;;;;5062032;28;21097;-49
2023/07/11 04:53:07;;;;;;;957.85;792.55;;;;;;;;;;5062341;28;20056;-50
2023/07/11 04:55:32;;;;;;;958.42;809.38;;;;;;;;;;5063227;28;20024;-50
2023/07/11 04:57:57;;;;;;;956.33;793.85;;;;;;;;;;5062879;28;20419;-48
2023/07/11 05:00:23;;;;;;;973.00;819.90;;;;;;;;;;5063048;28;20013;-51
2023/07/11 05:02:48;;;;;;;978.08;813.00;;;;;;;;;;5062669;28;20241;-51
2023/07/11 05:05:13;;;;;;;979.77;831.47;;;;;;;;;;5062999;28;20166;-49
2023/07/11 05:07:38;;;;;;;970.37;825.07;;;;;;;;;;5053658;28;20669;-47
2023/07/11 05:10:04;;;;;;;975.87;831.87;;;;;;;;;;5059231;28;20265;-50
2023/07/11 05:12:29;;;;;;;968.10;831.35;;;;;;;;;;5060063;28;20264;-47
2023/07/11 05:14:54;;;;;;;980.72;847.45;;;;;;;;;;5056637;28;20029;-48
2023/07/11 05:17:20;;;;;;;971.55;840.58;;;;;;;;;;5057095;28;20136;-47
2023/07/11 05:19:45;;;;;;;997.37;861.80;;;;;;;;;;5055797;28;20357;-49
2023/07/11 05:22:10;;;;;;;967.75;840.20;;;;;;;;;;5054624;28;20292;-46
2023/07/11 05:24:36;;;;;;;986.33;861.22;;;;;;;;;;5058417;28;20037;-47
2023/07/11 05:27:01;;;;;;;981.67;863.80;;;;;;;;;;5058507;28;20544;-50
2023/07/11 05:29:26;;;;;;;988.57;873.13;;;;;;;;;;5055505;28;20272;-46
2023/07/11 05:31:52;;;;;;;985.90;870.92;;;;;;;;;;5058110;28;21038;-46
2023/07/11 05:34:17;;;;;;;982.20;867.25;;;;;;;;;;5056270;28;20029;-48
2023/07/11 05:36:42;;;;;;;986.92;864.67;;;;;;;;;;5055708;28;20028;-48
2023/07/11 05:39:12;;;;;;;990.65;877.33;;;;;;;;;;5040826;28;20032;-48
2023/07/11 05:41:38;;;;;;;998.25;888.35;;;;;;;;;;5052624;28;20040;-46
2023/07/11 05:44:04;;;;;;;1007.92;893.70;;;;;;;;;;5056725;28;20032;-48
2023/07/11 05:46:29;;;;;;;1010.08;898.63;;;;;;;;;;5052095;28;20113;-50
2023/07/11 05:48:55;;;;;;;1013.10;901.75;;;;;;;;;;5057555;28;20109;-48
2023/07/11 05:51:21;;;;;;;1016.42;904.28;;;;;;;;;;5051938;28;20032;-50
2023/07/11 05:53:48;;;;;;;1022.80;911.72;;;;;;;;;;5057162;28;20841;-53
2023/07/11 05:56:13;;;;;;;1023.63;912.15;;;;;;;;;;5049560;28;20020;-47
2023/07/11 05:58:38;;;;;;;1028.80;916.05;;;;;;;;;;5055708;28;20054;-52
2023/07/11 06:01:04;;;;;;;1037.60;924.30;;;;;;;;;;5054422;28;20031;-47
2023/07/11 06:03:30;;;;;;;1035.50;922.55;;;;;;;;;;5057184;28;20707;-49
2023/07/11 06:05:59;;;;;;;1034.30;921.67;;;;;;;;;;5065058;28;20067;-52
2023/07/11 06:08:24;;;;;;;1049.47;936.08;;;;;;;;;;5065395;28;20039;-50
2023/07/11 06:10:50;;;;;;;1050.20;936.65;;;;;;;;;;5066436;28;20020;-51
2023/07/11 06:13:15;;;;;;;1054.47;940.30;;;;;;;;;;5055203;28;20032;-50
2023/07/11 06:15:40;;;;;;;1064.05;949.50;;;;;;;;;;5054471;28;20028;-50
2023/07/11 06:18:06;;;;;;;1059.50;945.33;;;;;;;;;;5040856;28;20058;-48
2023/07/11 06:20:31;;;;;;;1062.70;947.85;;;;;;;;;;5041811;28;20123;-51
2023/07/11 06:22:57;;;;;;;967.20;830.22;;;;;;;;;;5006040;28;20215;-51
2023/07/11 06:25:22;;;;;;;964.87;859.17;;;;;;;;;;5041593;28;20045;-47
2023/07/11 06:27:47;;;;;;;949.65;833.88;;;;;;;;;;5042655;28;20282;-50
2023/07/11 06:30:13;;;;;;;893.30;766.50;;;;;;;;;;5037909;28;20025;-51
2023/07/11 06:32:38;;;;;;;951.15;846.20;;;;;;;;;;5040652;28;20292;-53
2023/07/11 06:35:03;;;;;;;960.90;855.42;;;;;;;;;;5041224;28;20068;-50
2023/07/11 06:37:29;;;;;;;959.97;855.30;;;;;;;;;;5004705;28;20111;-50
2023/07/11 06:39:54;;;;;;;924.20;818.17;;;;;;;;;;5043136;28;20017;-51
2023/07/11 06:42:19;;;;;;;961.13;856.53;;;;;;;;;;5044565;28;20647;-50
2023/07/11 06:44:44;;;;;;;975.40;868.70;;;;;;;;;;5045328;28;20266;-48
2023/07/11 06:47:10;;;;;;;970.10;863.80;;;;;;;;;;5045592;28;21095;-51
2023/07/11 06:49:35;;;;;;;978.40;871.47;;;;;;;;;;5059681;28;20265;-54
2023/07/11 06:52:02;;;;;;;990.65;883.50;;;;;;;;;;5065107;28;20766;-49
2023/07/11 06:54:27;;;;;;;985.70;879.17;;;;;;;;;;5067565;28;20055;-51
2023/07/11 06:56:54;;;;;;;992.78;885.95;;;;;;;;;;5063505;28;20071;-53
2023/07/11 06:59:20;;;;;;;978.53;872.35;;;;;;;;;;5065525;28;20025;-51
2023/07/11 07:01:45;;;;;;;1002.78;894.92;;;;;;;;;;5064478;28;20033;-51
2023/07/11 07:04:11;;;;;;;1012.90;904.13;;;;;;;;;;5064482;28;20061;-51
2023/07/11 07:06:36;;;;;;;1010.72;902.58;;;;;;;;;;5062360;28;20086;-52
2023/07/11 07:09:03;;;;;;;1009.33;901.97;;;;;;;;;;5064994;28;20157;-52
2023/07/11 07:11:28;;;;;;;1006.83;899.00;;;;;;;;;;5071521;28;20265;-51
2023/07/11 07:13:53;;;;;;;1018.47;910.63;;;;;;;;;;5065565;28;20024;-50
2023/07/11 07:16:19;;;;;;;1015.30;907.03;;;;;;;;;;5027654;28;20033;-48
2023/07/11 07:18:44;;;;;;;1015.30;906.93;;;;;;;;;;5065643;28;20678;-51
2023/07/11 07:21:09;;;;;;;939.97;837.28;;;;;;;;;;5064854;28;20269;-53
2023/07/11 07:23:35;;;;;;;991.92;886.92;;;;;;;;;;5030778;28;20063;-53
2023/07/11 07:26:01;;;;;;;1006.22;899.58;;;;;;;;;;5058549;28;20780;-51
2023/07/11 07:28:27;;;;;;;1020.22;912.38;;;;;;;;;;5061507;28;20034;-53
2023/07/11 07:30:54;;;;;;;1018.92;911.45;;;;;;;;;;5064573;28;20026;-52
2023/07/11 07:33:20;;;;;;;1023.60;915.10;;;;;;;;;;5066260;28;20120;-52
2023/07/11 07:35:45;;;;;;;1021.60;913.42;;;;;;;;;;5058841;28;20424;-51
2023/07/11 07:38:11;;;;;;;1033.47;923.97;;;;;;;;;;5059001;28;20468;-53
2023/07/11 07:40:36;;;;;;;1033.70;924.28;;;;;;;;;;5067076;28;20024;-51
2023/07/11 07:43:02;;;;;;;1038.05;928.50;;;;;;;;;;5067869;28;20018;-55
2023/07/11 07:45:27;;;;;;;1047.43;937.47;;;;;;;;;;5068002;28;20043;-53
2023/07/11 07:47:52;;;;;;;1032.37;922.37;;;;;;;;;;5062104;28;20059;-54
2023/07/11 07:50:18;;;;;;;1040.23;930.50;;;;;;;;;;5063089;28;20288;-56
2023/07/11 07:52:43;;;;;;;1043.57;932.92;;;;;;;;;;5062978;28;20052;-54
2023/07/11 07:55:08;;;;;;;1040.50;929.53;;;;;;;;;;5063476;28;20056;-54
2023/07/11 07:57:34;;;;;;;1054.28;942.70;;;;;;;;;;5054440;28;20024;-55
2023/07/11 07:59:59;;;;;;;1043.45;932.60;;;;;;;;;;5058448;28;20169;-55
2023/07/11 08:02:24;;;;;;;1045.23;934.43;;;;;;;;;;5070214;28;20021;-54
2023/07/11 08:04:50;;;;;;;1053.38;942.53;;;;;;;;;;5059825;28;20531;-53
2023/07/11 08:07:15;;;;;;;1048.88;938.30;;;;;;;;;;5065473;28;20020;-55
2023/07/11 08:09:41;;;;;;;1035.57;926.08;;;;;;;;;;5065969;28;20035;-54
2023/07/11 08:12:07;;;;;;;1039.28;929.33;;;;;;;;;;5064617;28;20025;-56
2023/07/11 08:14:37;;;;;;;982.95;879.83;;;;;;;;;;5062576;28;20568;-54
2023/07/11 08:17:02;;;;;;;955.30;855.20;;;;;;;;;;5066813;28;20048;-53
2023/07/11 08:19:27;;;;;;;978.97;877.30;;;;;;;;;;5062754;28;20060;-56
2023/07/11 08:21:53;;;;;;;977.10;874.93;;;;;;;;;;5065337;28;20045;-57
2023/07/11 08:24:18;;;;;;;990.00;887.77;;;;;;;;;;5063562;28;20021;-55
2023/07/11 08:26:43;;;;;;;991.70;888.80;;;;;;;;;;5062431;28;20618;-55
